createdAt,value
2023-04-30T00:00:41.564Z,12.48
2023-04-30T00:01:43.711Z,12.63
2023-04-30T00:02:46.142Z,12.35
2023-04-30T00:03:50.071Z,12.18
2023-04-30T00:04:52.224Z,13.20
2023-04-30T00:05:54.391Z,15.55
2023-04-30T00:06:56.595Z,13.60
2023-04-30T00:07:58.699Z,16.73
2023-04-30T00:09:00.864Z,14.65
2023-04-30T00:10:03.219Z,15.52
2023-04-30T00:11:05.624Z,15.20
2023-04-30T00:12:07.700Z,13.52
2023-04-30T00:13:10.368Z,9.60
2023-04-30T00:14:12.485Z,11.65
2023-04-30T00:15:14.684Z,13.30
2023-04-30T00:16:16.816Z,11.63
2023-04-30T00:17:18.931Z,12.32
2023-04-30T00:18:21.032Z,13.82
2023-04-30T00:19:24.970Z,12.63
2023-04-30T00:20:27.043Z,13.27
2023-04-30T00:21:29.202Z,13.27
2023-04-30T00:22:31.334Z,11.80
2023-04-30T00:23:33.443Z,12.55
2023-04-30T00:24:35.649Z,14.80
2023-04-30T00:25:37.750Z,16.00
2023-04-30T00:26:39.920Z,12.35
2023-04-30T00:27:42.021Z,15.52
2023-04-30T00:28:44.096Z,12.00
2023-04-30T00:29:46.216Z,19.63
2023-04-30T00:30:48.334Z,15.60
2023-04-30T00:31:50.744Z,13.57
2023-04-30T00:32:53.116Z,13.90
2023-04-30T00:33:55.252Z,15.60
2023-04-30T00:34:58.757Z,15.05
2023-04-30T00:36:01.004Z,15.77
2023-04-30T00:37:03.701Z,16.38
2023-04-30T00:38:05.839Z,15.18
2023-04-30T00:39:07.951Z,15.57
2023-04-30T00:40:11.156Z,14.20
2023-04-30T00:41:13.883Z,13.10
2023-04-30T00:42:15.995Z,13.02
2023-04-30T00:43:18.127Z,12.38
2023-04-30T00:44:20.691Z,12.07
2023-04-30T00:45:23.521Z,14.10
2023-04-30T00:46:25.901Z,10.98
2023-04-30T00:47:28.246Z,12.23
2023-04-30T00:48:30.661Z,11.85
2023-04-30T00:49:33.221Z,15.93
2023-04-30T00:50:38.047Z,14.05
2023-04-30T00:51:41.286Z,13.00
2023-04-30T00:52:43.622Z,13.50
2023-04-30T00:53:46.157Z,13.50
2023-04-30T00:54:48.766Z,13.95
2023-04-30T00:55:50.952Z,13.63
2023-04-30T00:56:53.124Z,16.67
2023-04-30T00:57:55.578Z,11.15
2023-04-30T00:58:57.984Z,16.17
2023-04-30T01:00:00.224Z,14.88
2023-04-30T01:01:03.660Z,13.98
2023-04-30T01:02:05.860Z,13.55
2023-04-30T01:03:08.250Z,9.95
2023-04-30T01:04:10.887Z,12.48
2023-04-30T01:05:13.016Z,16.92
2023-04-30T01:06:16.576Z,13.57
2023-04-30T01:07:18.807Z,15.25
2023-04-30T01:08:21.719Z,13.07
2023-04-30T01:09:23.986Z,18.75
2023-04-30T01:10:35.975Z,15.55
2023-04-30T01:11:50.042Z,14.85
2023-04-30T01:13:04.183Z,13.52
2023-04-30T01:14:10.668Z,14.55
2023-04-30T01:15:19.267Z,14.15
2023-04-30T01:16:25.921Z,17.98
2023-04-30T01:17:33.973Z,15.05
2023-04-30T01:18:42.148Z,17.58
2023-04-30T01:19:46.068Z,16.67
2023-04-30T01:20:50.570Z,15.40
2023-04-30T01:21:55.449Z,17.92
2023-04-30T01:23:14.482Z,16.60
2023-04-30T01:24:32.521Z,17.88
2023-04-30T01:25:52.910Z,19.33
2023-04-30T01:27:07.800Z,19.20
2023-04-30T01:28:14.807Z,22.85
2023-04-30T01:29:19.117Z,19.48
2023-04-30T01:30:22.791Z,20.77
2023-04-30T01:32:35.223Z,21.67
2023-04-30T01:33:44.054Z,20.00
2023-04-30T01:34:46.116Z,19.25
2023-04-30T01:36:10.532Z,20.00
2023-04-30T01:37:21.264Z,20.33
2023-04-30T01:38:44.816Z,18.55
2023-04-30T01:39:57.608Z,21.90
2023-04-30T01:41:09.238Z,17.20
2023-04-30T01:42:17.761Z,22.05
2023-04-30T01:43:32.461Z,22.65
2023-04-30T01:44:58.655Z,21.23
2023-04-30T01:46:13.307Z,19.55
2023-04-30T01:47:29.350Z,16.52
2023-04-30T01:48:40.639Z,17.40
2023-04-30T01:50:55.826Z,15.75
2023-04-30T01:52:04.022Z,18.45
2023-04-30T01:53:09.593Z,26.08
2023-04-30T01:54:21.911Z,20.75
2023-04-30T01:55:29.818Z,22.33
2023-04-30T01:56:38.061Z,22.55
2023-04-30T01:57:43.554Z,20.55
2023-04-30T01:58:50.230Z,22.40
2023-04-30T01:59:52.973Z,20.83
2023-04-30T02:00:55.222Z,19.85
2023-04-30T02:01:57.550Z,22.95
2023-04-30T02:03:00.078Z,23.83
2023-04-30T02:04:04.436Z,24.17
2023-04-30T02:05:07.676Z,23.73
2023-04-30T02:06:09.792Z,23.65
2023-04-30T02:07:17.775Z,24.90
2023-04-30T02:08:19.897Z,25.55
2023-04-30T02:09:24.200Z,24.02
2023-04-30T02:10:27.168Z,23.40
2023-04-30T02:11:29.297Z,20.52
2023-04-30T02:12:31.429Z,23.92
2023-04-30T02:13:33.580Z,23.77
2023-04-30T02:14:37.041Z,21.25
2023-04-30T02:15:39.183Z,28.50
2023-04-30T02:16:41.679Z,24.30
2023-04-30T02:17:44.147Z,24.08
2023-04-30T02:18:46.615Z,21.75
2023-04-30T02:19:48.672Z,24.40
2023-04-30T02:20:50.766Z,22.50
2023-04-30T02:21:52.837Z,22.55
2023-04-30T02:22:55.000Z,23.70
2023-04-30T02:23:57.121Z,21.52
2023-04-30T02:24:59.202Z,19.02
2023-04-30T02:26:01.354Z,19.23
2023-04-30T02:27:03.528Z,18.33
2023-04-30T02:28:05.766Z,16.30
2023-04-30T02:29:07.903Z,17.75
2023-04-30T02:30:11.618Z,13.68
2023-04-30T02:31:13.784Z,17.60
2023-04-30T02:32:16.116Z,18.17
2023-04-30T02:33:18.201Z,18.38
2023-04-30T02:34:20.360Z,18.17
2023-04-30T02:35:22.427Z,17.75
2023-04-30T02:36:24.556Z,18.02
2023-04-30T02:37:26.673Z,19.10
2023-04-30T02:38:28.777Z,17.95
2023-04-30T02:39:30.854Z,16.92
2023-04-30T02:40:33.045Z,16.30
2023-04-30T02:41:35.202Z,15.80
2023-04-30T02:42:37.371Z,15.10
2023-04-30T02:43:39.517Z,16.65
2023-04-30T02:44:41.834Z,15.50
2023-04-30T02:45:45.410Z,16.70
2023-04-30T02:46:47.522Z,17.67
2023-04-30T02:47:49.624Z,16.92
2023-04-30T02:48:51.739Z,16.02
2023-04-30T02:49:54.015Z,17.52
2023-04-30T02:50:56.409Z,17.67
2023-04-30T02:51:58.574Z,17.02
2023-04-30T02:53:00.712Z,15.27
2023-04-30T02:54:02.807Z,16.38
2023-04-30T02:55:05.505Z,13.80
2023-04-30T02:56:08.259Z,18.83
2023-04-30T02:57:10.612Z,17.55
2023-04-30T02:58:13.601Z,17.45
2023-04-30T02:59:15.696Z,16.60
2023-04-30T03:00:18.021Z,18.20
2023-04-30T03:01:21.750Z,16.15
2023-04-30T03:02:24.069Z,19.27
2023-04-30T03:03:26.356Z,15.32
2023-04-30T03:04:28.472Z,16.98
2023-04-30T03:05:30.631Z,17.50
2023-04-30T03:06:33.557Z,19.83
2023-04-30T03:07:36.048Z,18.63
2023-04-30T03:08:38.183Z,16.92
2023-04-30T03:09:40.289Z,20.52
2023-04-30T03:10:42.478Z,20.17
2023-04-30T03:11:44.581Z,19.60
2023-04-30T03:12:46.681Z,18.73
2023-04-30T03:13:52.060Z,20.08
2023-04-30T03:14:54.229Z,21.05
2023-04-30T03:15:59.808Z,18.40
2023-04-30T03:17:03.416Z,17.90
2023-04-30T03:18:06.675Z,18.65
2023-04-30T03:19:08.902Z,18.02
2023-04-30T03:20:12.703Z,17.88
2023-04-30T03:21:15.109Z,17.52
2023-04-30T03:22:19.543Z,17.67
2023-04-30T03:23:21.919Z,18.70
2023-04-30T03:24:25.151Z,16.67
2023-04-30T03:25:27.277Z,19.02
2023-04-30T03:26:29.485Z,21.10
2023-04-30T03:27:31.641Z,20.98
2023-04-30T03:28:33.922Z,23.70
2023-04-30T03:29:36.295Z,19.63
2023-04-30T03:30:39.436Z,21.58
2023-04-30T03:31:41.658Z,19.50
2023-04-30T03:32:46.277Z,19.00
2023-04-30T03:33:48.534Z,15.93
2023-04-30T03:34:50.886Z,21.67
2023-04-30T03:35:53.522Z,20.65
2023-04-30T03:36:55.634Z,18.25
2023-04-30T03:37:57.749Z,20.80
2023-04-30T03:38:59.815Z,18.73
2023-04-30T03:40:01.915Z,18.55
2023-04-30T03:41:04.098Z,22.58
2023-04-30T03:42:06.187Z,20.25
2023-04-30T03:43:08.307Z,20.13
2023-04-30T03:44:15.792Z,20.20
2023-04-30T03:45:18.243Z,19.17
2023-04-30T03:46:20.797Z,16.85
2023-04-30T03:47:22.936Z,22.95
2023-04-30T03:48:27.268Z,16.65
2023-04-30T03:49:29.319Z,19.50
2023-04-30T03:50:31.555Z,21.48
2023-04-30T03:51:33.638Z,19.67
2023-04-30T03:52:36.893Z,17.05
2023-04-30T03:53:38.983Z,20.33
2023-04-30T03:54:41.061Z,20.65
2023-04-30T03:55:43.464Z,17.90
2023-04-30T03:56:45.774Z,20.45
2023-04-30T03:57:48.049Z,16.15
2023-04-30T03:58:50.202Z,18.95
2023-04-30T03:59:52.563Z,17.95
2023-04-30T04:00:54.750Z,16.63
2023-04-30T04:01:56.978Z,18.50
2023-04-30T04:02:59.646Z,15.57
2023-04-30T04:04:03.426Z,18.27
2023-04-30T04:05:06.558Z,16.45
2023-04-30T04:06:08.670Z,15.60
2023-04-30T04:07:11.566Z,18.52
2023-04-30T04:08:13.941Z,17.35
2023-04-30T04:09:16.029Z,17.23
2023-04-30T04:10:18.158Z,14.90
2023-04-30T04:11:20.840Z,13.73
2023-04-30T04:12:23.696Z,17.05
2023-04-30T04:13:26.051Z,16.17
2023-04-30T04:14:28.216Z,15.60
2023-04-30T04:15:31.010Z,16.63
2023-04-30T04:16:33.225Z,15.30
2023-04-30T04:17:35.483Z,15.93
2023-04-30T04:18:37.676Z,13.90
2023-04-30T04:19:41.366Z,12.45
2023-04-30T04:20:43.436Z,11.65
2023-04-30T04:21:45.636Z,12.48
2023-04-30T04:22:47.896Z,11.32
2023-04-30T04:23:50.382Z,14.32
2023-04-30T04:24:52.997Z,10.80
2023-04-30T04:25:55.207Z,11.98
2023-04-30T04:26:58.151Z,15.13
2023-04-30T04:28:00.431Z,13.95
2023-04-30T04:29:04.061Z,10.73
2023-04-30T04:30:07.326Z,12.55
2023-04-30T04:31:09.429Z,10.68
2023-04-30T04:32:11.809Z,12.32
2023-04-30T04:33:13.979Z,10.45
2023-04-30T04:34:16.169Z,12.90
2023-04-30T04:35:20.698Z,12.02
2023-04-30T04:36:23.492Z,11.43
2023-04-30T04:37:25.641Z,12.85
2023-04-30T04:38:27.835Z,14.95
2023-04-30T04:39:29.932Z,13.10
2023-04-30T04:40:32.050Z,12.50
2023-04-30T04:41:38.113Z,11.23
2023-04-30T04:42:40.358Z,14.10
2023-04-30T04:43:42.515Z,10.65
2023-04-30T04:44:44.594Z,14.88
2023-04-30T04:45:48.028Z,14.23
2023-04-30T04:46:54.085Z,10.07
2023-04-30T04:47:56.273Z,11.48
2023-04-30T04:48:58.543Z,11.70
2023-04-30T04:50:00.704Z,12.32
2023-04-30T04:51:04.602Z,13.50
2023-04-30T04:52:07.162Z,11.70
2023-04-30T04:53:09.335Z,10.77
2023-04-30T04:54:11.774Z,9.77
2023-04-30T04:55:14.070Z,10.18
2023-04-30T04:56:16.328Z,9.50
2023-04-30T04:57:18.697Z,11.77
2023-04-30T04:58:20.917Z,8.88
2023-04-30T04:59:23.079Z,12.63
2023-04-30T05:00:25.890Z,11.30
2023-04-30T05:01:28.173Z,7.57
2023-04-30T05:02:30.595Z,9.57
2023-04-30T05:03:33.794Z,12.20
2023-04-30T05:04:36.050Z,10.02
2023-04-30T05:05:38.149Z,10.30
2023-04-30T05:06:42.855Z,9.85
2023-04-30T05:07:45.311Z,15.55
2023-04-30T05:08:47.378Z,12.23
2023-04-30T05:09:49.497Z,7.90
2023-04-30T05:10:51.711Z,8.93
2023-04-30T05:11:53.776Z,9.50
2023-04-30T05:12:56.080Z,9.27
2023-04-30T05:13:58.327Z,8.90
2023-04-30T05:15:01.030Z,8.38
2023-04-30T05:16:03.324Z,8.80
2023-04-30T05:17:06.130Z,9.30
2023-04-30T05:18:08.522Z,7.75
2023-04-30T05:19:10.749Z,10.40
2023-04-30T05:20:13.548Z,7.70
2023-04-30T05:21:16.151Z,6.78
2023-04-30T05:22:19.704Z,8.70
2023-04-30T05:23:22.000Z,10.45
2023-04-30T05:24:24.407Z,9.55
2023-04-30T05:25:26.584Z,5.88
2023-04-30T05:26:28.719Z,7.70
2023-04-30T05:27:30.861Z,4.85
2023-04-30T05:28:33.896Z,5.30
2023-04-30T05:29:36.073Z,7.43
2023-04-30T05:30:38.307Z,5.72
2023-04-30T05:31:40.564Z,8.48
2023-04-30T05:32:43.232Z,4.15
2023-04-30T05:33:45.369Z,5.55
2023-04-30T05:34:47.502Z,5.35
2023-04-30T05:35:49.641Z,3.17
2023-04-30T05:36:51.723Z,2.65
2023-04-30T05:37:55.246Z,4.35
2023-04-30T05:38:57.325Z,4.85
2023-04-30T05:39:59.871Z,3.90
2023-04-30T05:41:02.016Z,3.30
2023-04-30T05:42:04.264Z,5.22
2023-04-30T05:43:06.450Z,7.07
2023-04-30T05:44:09.005Z,2.47
2023-04-30T05:45:14.788Z,5.72
2023-04-30T05:46:17.000Z,5.45
2023-04-30T05:47:19.082Z,3.58
2023-04-30T05:48:21.317Z,2.72
2023-04-30T05:49:23.459Z,4.22
2023-04-30T05:50:25.653Z,3.03
2023-04-30T05:51:28.075Z,2.50
2023-04-30T05:52:30.243Z,1.80
2023-04-30T05:53:33.718Z,3.38
2023-04-30T05:54:36.779Z,3.33
2023-04-30T05:55:39.025Z,3.03
2023-04-30T05:56:41.264Z,2.28
2023-04-30T05:57:43.426Z,2.97
2023-04-30T05:58:46.193Z,2.20
2023-04-30T05:59:48.433Z,1.63
2023-04-30T06:00:52.046Z,1.75
2023-04-30T06:01:54.160Z,3.42
2023-04-30T06:02:56.440Z,2.47
2023-04-30T06:04:01.296Z,3.78
2023-04-30T06:05:03.817Z,2.97
2023-04-30T06:06:06.165Z,1.70
2023-04-30T06:07:08.334Z,2.08
2023-04-30T06:08:10.469Z,2.13
2023-04-30T06:09:13.944Z,1.52
2023-04-30T06:10:17.001Z,2.17
2023-04-30T06:11:19.161Z,2.78
2023-04-30T06:12:21.496Z,1.80
2023-04-30T06:13:23.723Z,3.42
2023-04-30T06:14:25.975Z,1.85
2023-04-30T06:15:28.331Z,2.25
2023-04-30T06:16:30.803Z,2.67
2023-04-30T06:17:32.992Z,2.45
2023-04-30T06:18:35.148Z,2.60
2023-04-30T06:19:39.014Z,2.20
2023-04-30T06:20:41.593Z,1.35
2023-04-30T06:21:44.062Z,1.20
2023-04-30T06:22:46.198Z,1.55
2023-04-30T06:23:48.293Z,2.38
2023-04-30T06:24:51.769Z,4.65
2023-04-30T06:25:53.872Z,5.43
2023-04-30T06:26:56.035Z,2.13
2023-04-30T06:27:58.144Z,3.13
2023-04-30T06:29:00.385Z,1.58
2023-04-30T06:30:02.500Z,2.88
2023-04-30T06:31:04.826Z,2.35
2023-04-30T06:32:08.518Z,9.85
2023-04-30T06:33:10.860Z,2.28
2023-04-30T06:34:13.063Z,2.60
2023-04-30T06:35:15.625Z,1.38
2023-04-30T06:36:17.737Z,2.10
2023-04-30T06:37:20.213Z,1.75
2023-04-30T06:38:22.416Z,3.55
2023-04-30T06:39:24.680Z,2.08
2023-04-30T06:40:28.185Z,1.73
2023-04-30T06:41:30.587Z,2.63
2023-04-30T06:42:35.967Z,2.83
2023-04-30T06:43:38.588Z,1.50
2023-04-30T06:44:40.818Z,3.88
2023-04-30T06:45:42.908Z,3.13
2023-04-30T06:46:45.101Z,2.00
2023-04-30T06:47:47.498Z,3.83
2023-04-30T06:48:49.623Z,3.40
2023-04-30T06:49:51.750Z,1.15
2023-04-30T06:50:53.884Z,3.72
2023-04-30T06:51:59.453Z,2.70
2023-04-30T06:53:01.648Z,2.45
2023-04-30T06:54:03.845Z,1.50
2023-04-30T06:55:06.812Z,1.08
2023-04-30T06:56:10.322Z,2.47
2023-04-30T06:57:12.625Z,1.27
2023-04-30T06:58:14.929Z,1.85
2023-04-30T06:59:17.883Z,2.08
2023-04-30T07:00:20.227Z,1.70
2023-04-30T07:01:22.389Z,1.98
2023-04-30T07:02:24.565Z,2.58
2023-04-30T07:03:27.335Z,1.98
2023-04-30T07:04:29.512Z,1.90
2023-04-30T07:05:32.137Z,1.63
2023-04-30T07:06:34.283Z,2.35
2023-04-30T07:07:36.392Z,2.20
2023-04-30T07:08:41.129Z,3.30
2023-04-30T07:09:43.294Z,2.78
2023-04-30T07:10:45.575Z,3.60
2023-04-30T07:11:49.305Z,2.75
2023-04-30T07:12:51.505Z,3.60
2023-04-30T07:13:53.732Z,3.30
2023-04-30T07:14:55.893Z,3.42
2023-04-30T07:15:59.512Z,2.20
2023-04-30T07:17:01.844Z,1.80
2023-04-30T07:18:04.597Z,1.77
2023-04-30T07:19:06.729Z,4.10
2023-04-30T07:20:10.328Z,1.98
2023-04-30T07:21:12.520Z,1.10
2023-04-30T07:22:14.624Z,1.58
2023-04-30T07:23:16.721Z,4.00
2023-04-30T07:24:18.936Z,1.85
2023-04-30T07:25:21.166Z,3.60
2023-04-30T07:26:25.918Z,1.95
2023-04-30T07:27:29.417Z,1.17
2023-04-30T07:28:31.514Z,1.15
2023-04-30T07:29:33.653Z,2.25
2023-04-30T07:30:35.861Z,2.35
2023-04-30T07:31:38.130Z,1.40
2023-04-30T07:32:41.612Z,1.80
2023-04-30T07:33:44.059Z,1.65
2023-04-30T07:34:46.344Z,1.15
2023-04-30T07:35:48.509Z,1.27
2023-04-30T07:36:50.875Z,2.35
2023-04-30T07:37:53.031Z,3.13
2023-04-30T07:38:55.139Z,2.28
2023-04-30T07:39:57.407Z,2.03
2023-04-30T07:40:59.571Z,2.30
2023-04-30T07:42:02.990Z,1.50
2023-04-30T07:43:06.485Z,1.73
2023-04-30T07:44:08.568Z,1.77
2023-04-30T07:45:10.946Z,0.90
2023-04-30T07:46:13.071Z,3.78
2023-04-30T07:47:15.356Z,0.57
2023-04-30T07:48:18.024Z,2.40
2023-04-30T07:49:20.145Z,1.95
2023-04-30T07:50:22.201Z,0.95
2023-04-30T07:51:24.301Z,1.55
2023-04-30T07:52:26.420Z,3.00
2023-04-30T07:53:28.655Z,2.45
2023-04-30T07:54:31.106Z,2.80
2023-04-30T07:55:33.194Z,1.40
2023-04-30T07:56:36.122Z,2.45
2023-04-30T07:57:38.171Z,0.98
2023-04-30T07:58:41.764Z,1.00
2023-04-30T07:59:43.874Z,1.20
2023-04-30T08:00:46.017Z,2.25
2023-04-30T08:01:48.172Z,2.75
2023-04-30T08:02:50.791Z,3.53
2023-04-30T08:03:53.351Z,2.38
2023-04-30T08:04:55.526Z,2.58
2023-04-30T08:05:57.708Z,2.30
2023-04-30T08:06:59.832Z,1.00
2023-04-30T08:08:02.238Z,1.58
2023-04-30T08:09:04.774Z,1.65
2023-04-30T08:10:07.973Z,0.60
2023-04-30T08:11:10.823Z,3.53
2023-04-30T08:12:12.935Z,1.50
2023-04-30T08:13:15.084Z,1.00
2023-04-30T08:14:19.328Z,1.55
2023-04-30T08:15:24.340Z,1.95
2023-04-30T08:16:26.484Z,1.98
2023-04-30T08:17:28.649Z,2.40
2023-04-30T08:18:32.269Z,1.92
2023-04-30T08:19:34.380Z,1.05
2023-04-30T08:20:38.022Z,2.08
2023-04-30T08:21:40.848Z,2.38
2023-04-30T08:22:43.054Z,2.08
2023-04-30T08:23:45.178Z,2.20
2023-04-30T08:24:47.397Z,1.70
2023-04-30T08:25:49.467Z,1.50
2023-04-30T08:26:54.154Z,3.90
2023-04-30T08:27:56.908Z,2.08
2023-04-30T08:28:59.033Z,2.38
2023-04-30T08:30:02.532Z,1.92
2023-04-30T08:31:05.043Z,1.00
2023-04-30T08:32:07.402Z,0.70
2023-04-30T08:33:09.861Z,2.03
2023-04-30T08:34:12.022Z,1.02
2023-04-30T08:35:14.473Z,1.83
2023-04-30T08:36:16.604Z,1.55
2023-04-30T08:37:18.693Z,2.10
2023-04-30T08:38:20.944Z,1.35
2023-04-30T08:39:23.031Z,0.70
2023-04-30T08:40:43.430Z,2.75
2023-04-30T08:41:56.075Z,3.15
2023-04-30T08:43:05.068Z,1.65
2023-04-30T08:44:08.526Z,1.35
2023-04-30T08:45:13.070Z,1.08
2023-04-30T08:46:17.522Z,2.17
2023-04-30T08:47:20.862Z,0.88
2023-04-30T08:48:25.030Z,1.27
2023-04-30T08:49:28.274Z,3.38
2023-04-30T08:50:31.166Z,0.70
2023-04-30T08:51:35.259Z,0.75
2023-04-30T08:52:38.965Z,2.22
2023-04-30T08:53:42.264Z,3.67
2023-04-30T08:54:44.941Z,2.15
2023-04-30T08:55:47.439Z,1.75
2023-04-30T08:56:49.984Z,1.25
2023-04-30T08:57:52.147Z,1.77
2023-04-30T08:58:54.302Z,0.80
2023-04-30T08:59:56.982Z,1.02
2023-04-30T09:01:02.455Z,1.10
2023-04-30T09:02:05.611Z,1.80
2023-04-30T09:03:08.576Z,3.10
2023-04-30T09:04:11.815Z,1.30
2023-04-30T09:05:15.261Z,1.65
2023-04-30T09:06:17.571Z,1.45
2023-04-30T09:07:23.724Z,0.70
2023-04-30T09:08:41.741Z,4.85
2023-04-30T09:09:44.366Z,0.60
2023-04-30T09:10:46.731Z,0.52
2023-04-30T09:11:48.822Z,1.35
2023-04-30T09:13:01.701Z,0.77
2023-04-30T09:14:03.877Z,1.65
2023-04-30T09:15:11.705Z,1.48
2023-04-30T09:16:15.280Z,0.73
2023-04-30T09:17:22.987Z,1.30
2023-04-30T09:18:25.369Z,0.93
2023-04-30T09:19:28.721Z,0.73
2023-04-30T09:20:30.862Z,1.63
2023-04-30T09:21:33.851Z,4.13
2023-04-30T09:22:37.298Z,2.40
2023-04-30T09:23:55.623Z,2.10
2023-04-30T09:24:57.701Z,1.80
2023-04-30T09:26:00.815Z,0.73
2023-04-30T09:27:16.518Z,2.00
2023-04-30T09:28:23.632Z,1.30
2023-04-30T09:29:37.060Z,0.75
2023-04-30T09:30:39.942Z,2.30
2023-04-30T09:31:47.191Z,3.38
2023-04-30T09:32:56.502Z,1.23
2023-04-30T09:33:59.157Z,3.80
2023-04-30T09:35:01.261Z,0.95
2023-04-30T09:36:09.829Z,7.10
2023-04-30T09:37:12.445Z,1.45
2023-04-30T09:38:28.658Z,1.70
2023-04-30T09:39:30.995Z,3.60
2023-04-30T09:40:35.410Z,1.27
2023-04-30T09:41:37.545Z,0.75
2023-04-30T09:42:40.102Z,1.02
2023-04-30T09:43:45.656Z,0.50
2023-04-30T09:44:48.965Z,1.90
2023-04-30T09:45:52.464Z,1.25
2023-04-30T09:46:56.581Z,0.50
2023-04-30T09:48:12.829Z,0.57
2023-04-30T09:49:20.800Z,0.45
2023-04-30T09:50:26.633Z,1.13
2023-04-30T09:51:29.295Z,0.75
2023-04-30T09:52:31.896Z,0.80
2023-04-30T09:53:38.013Z,0.70
2023-04-30T09:54:41.230Z,3.65
2023-04-30T09:55:45.412Z,2.03
2023-04-30T09:56:47.927Z,3.00
2023-04-30T09:57:50.429Z,0.30
2023-04-30T09:58:54.712Z,2.50
2023-04-30T09:59:58.404Z,0.30
2023-04-30T10:01:03.505Z,0.88
2023-04-30T10:02:08.320Z,1.08
2023-04-30T10:03:12.235Z,0.95
2023-04-30T10:04:15.215Z,0.73
2023-04-30T10:05:18.214Z,1.75
2023-04-30T10:06:22.080Z,2.53
2023-04-30T10:07:26.502Z,0.63
2023-04-30T10:08:31.499Z,1.15
2023-04-30T10:09:40.205Z,2.83
2023-04-30T10:10:45.404Z,1.58
2023-04-30T10:11:47.913Z,0.68
2023-04-30T10:12:53.153Z,0.43
2023-04-30T10:14:01.884Z,0.75
2023-04-30T10:15:10.727Z,2.20
2023-04-30T10:16:21.720Z,1.67
2023-04-30T10:17:28.228Z,2.47
2023-04-30T10:18:35.096Z,1.95
2023-04-30T10:19:41.738Z,2.08
2023-04-30T10:20:49.026Z,1.35
2023-04-30T10:21:51.699Z,2.05
2023-04-30T10:23:01.410Z,3.65
2023-04-30T10:24:04.802Z,0.40
2023-04-30T10:25:11.386Z,1.20
2023-04-30T10:26:14.275Z,3.58
2023-04-30T10:27:16.882Z,4.28
2023-04-30T10:28:19.350Z,1.77
2023-04-30T10:29:21.512Z,0.70
2023-04-30T10:30:23.914Z,0.55
2023-04-30T10:31:30.818Z,3.83
2023-04-30T10:32:41.969Z,2.83
2023-04-30T10:35:00.064Z,1.80
2023-04-30T10:36:05.891Z,2.85
2023-04-30T10:37:15.100Z,3.47
2023-04-30T10:38:22.444Z,1.08
2023-04-30T10:39:27.726Z,2.08
2023-04-30T10:40:29.828Z,1.35
2023-04-30T10:41:32.161Z,1.25
2023-04-30T10:42:35.824Z,1.48
2023-04-30T10:43:38.337Z,1.48
2023-04-30T10:44:40.517Z,1.38
2023-04-30T10:45:44.306Z,0.65
2023-04-30T10:46:46.863Z,3.80
2023-04-30T10:47:50.440Z,0.88
2023-04-30T10:48:55.088Z,0.82
2023-04-30T10:50:03.325Z,1.13
2023-04-30T10:51:05.734Z,1.25
2023-04-30T10:52:07.840Z,1.40
2023-04-30T10:53:15.996Z,1.13
2023-04-30T10:54:25.465Z,0.80
2023-04-30T10:55:30.379Z,1.20
2023-04-30T10:56:33.186Z,0.40
2023-04-30T10:57:42.577Z,0.52
2023-04-30T10:58:46.238Z,0.50
2023-04-30T10:59:53.581Z,0.68
2023-04-30T11:01:04.465Z,0.35
2023-04-30T11:02:10.811Z,0.65
2023-04-30T11:03:14.653Z,0.40
2023-04-30T11:04:16.789Z,1.13
2023-04-30T11:05:19.885Z,1.65
2023-04-30T11:06:26.681Z,0.85
2023-04-30T11:07:29.045Z,4.43
2023-04-30T11:08:35.797Z,0.70
2023-04-30T11:09:41.489Z,1.02
2023-04-30T11:10:58.990Z,0.80
2023-04-30T11:12:03.777Z,1.90
2023-04-30T11:13:07.816Z,0.60
2023-04-30T11:14:12.416Z,2.15
2023-04-30T11:15:16.689Z,1.55
2023-04-30T11:16:20.334Z,1.33
2023-04-30T11:17:24.018Z,3.17
2023-04-30T11:18:29.214Z,0.98
2023-04-30T11:19:34.729Z,0.38
2023-04-30T11:20:41.815Z,0.80
2023-04-30T11:22:15.879Z,2.05
2023-04-30T11:23:37.903Z,0.32
2023-04-30T11:25:03.881Z,0.43
2023-04-30T11:26:07.899Z,0.65
2023-04-30T11:27:13.903Z,1.58
2023-04-30T11:28:18.090Z,2.15
2023-04-30T11:29:20.432Z,0.95
2023-04-30T11:30:24.044Z,0.93
2023-04-30T11:31:34.608Z,2.28
2023-04-30T11:32:38.193Z,1.08
2023-04-30T11:33:41.790Z,1.27
2023-04-30T11:34:45.065Z,1.23
2023-04-30T11:35:49.444Z,1.55
2023-04-30T11:36:52.675Z,0.73
2023-04-30T11:37:57.016Z,1.02
2023-04-30T11:38:59.630Z,1.17
2023-04-30T11:40:04.176Z,1.65
2023-04-30T11:41:06.828Z,2.63
2023-04-30T11:42:09.044Z,0.77
2023-04-30T11:43:25.036Z,0.80
2023-04-30T11:44:27.532Z,2.75
2023-04-30T11:45:30.440Z,1.02
2023-04-30T11:46:32.723Z,1.42
2023-04-30T11:47:42.633Z,0.73
2023-04-30T11:48:46.769Z,0.60
2023-04-30T11:49:52.106Z,3.40
2023-04-30T11:50:54.229Z,2.42
2023-04-30T11:51:56.385Z,1.35
2023-04-30T11:53:01.907Z,1.73
2023-04-30T11:54:08.258Z,0.70
2023-04-30T11:55:18.725Z,3.83
2023-04-30T11:56:22.451Z,1.50
2023-04-30T11:57:24.918Z,1.58
2023-04-30T11:58:28.925Z,1.05
2023-04-30T11:59:32.040Z,1.92
2023-04-30T12:00:34.634Z,0.75
2023-04-30T12:01:37.253Z,1.75
2023-04-30T12:02:39.933Z,0.50
2023-04-30T12:03:43.464Z,1.02
2023-04-30T12:04:47.484Z,0.52
2023-04-30T12:05:49.586Z,1.45
2023-04-30T12:06:51.821Z,2.28
2023-04-30T12:07:56.975Z,0.50
2023-04-30T12:09:11.747Z,1.48
2023-04-30T12:10:14.197Z,8.32
2023-04-30T12:11:26.601Z,1.73
2023-04-30T12:12:40.544Z,3.95
2023-04-30T12:13:51.144Z,0.52
2023-04-30T12:14:53.389Z,0.50
2023-04-30T12:15:59.834Z,1.00
2023-04-30T12:17:02.226Z,0.52
2023-04-30T12:18:13.347Z,3.67
2023-04-30T12:19:16.210Z,1.13
2023-04-30T12:20:26.447Z,0.40
2023-04-30T12:21:29.111Z,1.25
2023-04-30T12:22:31.468Z,1.20
2023-04-30T12:23:33.898Z,1.15
2023-04-30T12:24:36.119Z,0.38
2023-04-30T12:25:43.808Z,0.95
2023-04-30T12:26:46.651Z,1.20
2023-04-30T12:27:50.885Z,0.82
2023-04-30T12:28:53.025Z,0.50
2023-04-30T12:29:56.508Z,1.85
2023-04-30T12:30:59.972Z,2.60
2023-04-30T12:32:02.114Z,1.98
2023-04-30T12:33:04.355Z,0.80
2023-04-30T12:34:07.593Z,1.17
2023-04-30T12:35:14.510Z,1.23
2023-04-30T12:36:18.082Z,4.55
2023-04-30T12:37:21.413Z,0.63
2023-04-30T12:38:23.635Z,1.20
2023-04-30T12:39:26.224Z,1.58
2023-04-30T12:40:28.688Z,3.63
2023-04-30T12:41:30.805Z,1.42
2023-04-30T12:42:34.348Z,4.00
2023-04-30T12:43:36.448Z,0.75
2023-04-30T12:44:47.102Z,1.88
2023-04-30T12:45:52.140Z,1.67
2023-04-30T12:46:57.310Z,2.38
2023-04-30T12:47:59.614Z,1.98
2023-04-30T12:49:01.890Z,1.30
2023-04-30T12:50:04.597Z,1.02
2023-04-30T12:51:06.792Z,2.30
2023-04-30T12:52:12.485Z,2.42
2023-04-30T12:53:14.663Z,1.88
2023-04-30T12:54:24.675Z,1.67
2023-04-30T12:55:27.113Z,1.92
2023-04-30T12:56:29.301Z,1.13
2023-04-30T12:57:31.490Z,2.15
2023-04-30T12:58:34.002Z,1.55
2023-04-30T12:59:38.711Z,1.40
2023-04-30T13:00:45.011Z,3.97
2023-04-30T13:01:47.388Z,2.55
2023-04-30T13:02:50.414Z,3.05
2023-04-30T13:03:53.956Z,2.67
2023-04-30T13:04:57.054Z,2.63
2023-04-30T13:05:59.649Z,3.50
2023-04-30T13:07:01.766Z,1.40
2023-04-30T13:08:09.491Z,4.75
2023-04-30T13:09:12.571Z,1.50
2023-04-30T13:10:15.002Z,1.77
2023-04-30T13:11:17.170Z,5.13
2023-04-30T13:12:20.199Z,1.73
2023-04-30T13:13:22.363Z,3.25
2023-04-30T13:14:24.737Z,2.00
2023-04-30T13:15:27.025Z,2.00
2023-04-30T13:16:30.960Z,2.40
2023-04-30T13:17:33.409Z,3.08
2023-04-30T13:18:35.523Z,3.25
2023-04-30T13:19:37.634Z,1.80
2023-04-30T13:20:39.848Z,1.15
2023-04-30T13:21:42.201Z,3.67
2023-04-30T13:22:44.368Z,3.90
2023-04-30T13:23:53.436Z,1.88
2023-04-30T13:24:56.970Z,4.50
2023-04-30T13:25:59.466Z,3.30
2023-04-30T13:27:14.134Z,3.78
2023-04-30T13:28:16.876Z,1.52
2023-04-30T13:29:21.035Z,1.48
2023-04-30T13:30:23.810Z,2.33
2023-04-30T13:31:26.316Z,2.35
2023-04-30T13:32:28.577Z,1.30
2023-04-30T13:33:30.969Z,1.77
2023-04-30T13:34:33.103Z,3.92
2023-04-30T13:35:35.417Z,2.08
2023-04-30T13:36:37.649Z,2.58
2023-04-30T13:37:40.189Z,3.70
2023-04-30T13:38:42.828Z,2.65
2023-04-30T13:39:46.575Z,2.08
2023-04-30T13:40:48.719Z,3.10
2023-04-30T13:41:50.814Z,2.45
2023-04-30T13:42:52.910Z,4.00
2023-04-30T13:43:55.067Z,2.15
2023-04-30T13:44:57.734Z,2.45
2023-04-30T13:46:00.104Z,1.73
2023-04-30T13:47:02.385Z,1.83
2023-04-30T13:48:04.912Z,2.53
2023-04-30T13:49:07.083Z,1.60
2023-04-30T13:50:10.011Z,1.10
2023-04-30T13:51:12.116Z,2.10
2023-04-30T13:52:14.241Z,1.17
2023-04-30T13:53:16.374Z,2.55
2023-04-30T13:54:18.583Z,3.58
2023-04-30T13:55:22.800Z,1.13
2023-04-30T13:56:25.496Z,3.15
2023-04-30T13:57:30.059Z,1.30
2023-04-30T13:58:32.732Z,3.08
2023-04-30T13:59:34.900Z,2.08
2023-04-30T14:00:37.134Z,3.47
2023-04-30T14:01:40.429Z,1.75
2023-04-30T14:02:42.641Z,1.67
2023-04-30T14:03:44.957Z,1.35